Hauptseite
METAR-TAF:

METAR-TAF

Flughäfen :

Lusaka, Sambia

Flughafen Lusaka

Breite: 15-19-51S, Länge: 028-27-09E, Höhe: 1152 m

Beobachtung

Neuester Wetterbericht von vor 2 Stunden und 11 Minuten, um 12:00 UTC
Wind 12 kt aus Nord/Nordost
Temperatur 35°C
Luftfeuchtigkeit 16%
Luftdruck 1016 hPa
Sichtweite: 8000 m

METAR: FLKK 201200Z 03012KT 8000 NSC 35/05 Q1016

Zeit: 16:11 (14:11 UTC)

Prognose

Neuester Wetterbericht von vor 16 Stunden und 11 Minuten, um 22:00 UTC
Gültige Prognose vom 19 um 00 UTC bis 20 um 06 UTC
Wind 10 kt aus Ost
Sichtweite 10 km oder mehr
keine Wolken unter 1500 m und keine Kumulonimbus oder Gewitterwolken

TAF: FLKK 182200Z 1900/2006 08010KT CAVOK

Wetterbeobachtungen und Prognosen von mehr als 4000 Flughäfen (METAR und TAF Bericht).

Die verfügbaren Stationen werden durch gelbe und rote Markierungen auf der Karte dargestellt.

Führen Sie die Maus auf sie, um den Namen der Station zu sehen.

Darauf klicken, um die Beobachtung von Wetterbeobachtungen und Prognosen zu sehen.

Um die Karte zu ändern : klicken Sie auf den grünen Tasten mit einem schwarzen Kreuz Zum Vergrößern, auf den grünen Button mit einem Gedankenstrich zu verkleinern, oder auf die grünen Pfeile für benachbarte Karten.


METAR-TAF: